Time;durP1;ratioP1;P1;durP2;ratioP2;P2;SDS_P1;SDS_P2;PMS_P1;PMS_P2;Temp;Humidity;BMP_temperature;BMP_pressure;BME280_temperature;BME280_humidity;BME280_pressure;Samples;Min_cycle;Max_cycle;Signal;HPM_P1;HPM_P2
2022/07/26 00:01:04;;;;;;;;;;;;;;;;;;5045184;28;19921;-60
2022/07/26 00:03:30;;;;;;;;;;;;;;;;;;5051549;28;19919;-61
2022/07/26 00:05:55;;;;;;;;;;;;;;;;;;5048971;28;19913;-60
2022/07/26 00:08:21;;;;;;;;;;;;;;;;;;5054184;28;19927;-61
2022/07/26 00:10:50;;;;;;;;;;;;;;;;;;5045055;28;19920;-60
2022/07/26 00:13:16;;;;;;;;;;;;;;;;;;5051325;28;19920;-61
2022/07/26 00:15:42;;;;;;;;;;;;;;;;;;5051770;28;19917;-60
2022/07/26 00:18:08;;;;;;;;;;;;;;;;;;5048965;28;19924;-60
2022/07/26 00:20:34;;;;;;;;;;;;;;;;;;5052513;28;20457;-61
2022/07/26 00:23:00;;;;;;;;;;;;;;;;;;5053122;28;19920;-60
2022/07/26 00:25:25;;;;;;;;;;;;;;;;;;5047712;28;19921;-60
2022/07/26 00:27:51;;;;;;;;;;;;;;;;;;5049993;28;19923;-60
2022/07/26 00:30:17;;;;;;;;;;;;;;;;;;5050582;28;20023;-60
2022/07/26 00:32:43;;;;;;;;;;;;;;;;;;5048356;28;19999;-60
2022/07/26 00:35:09;;;;;;;;;;;;;;;;;;5049380;28;19927;-60
2022/07/26 00:37:35;;;;;;;;;;;;;;;;;;5050196;28;19926;-60
2022/07/26 00:40:01;;;;;;;;;;;;;;;;;;5048406;28;19962;-60
2022/07/26 00:42:26;;;;;;;;;;;;;;;;;;5046992;28;19920;-60
2022/07/26 00:44:52;;;;;;;;;;;;;;;;;;5051614;28;19921;-61
2022/07/26 00:47:18;;;;;;;;;;;;;;;;;;5051458;28;19912;-60
2022/07/26 00:49:44;;;;;;;;;;;;;;;;;;5046933;28;19920;-60
2022/07/26 00:52:10;;;;;;;;;;;;;;;;;;5048797;28;20358;-60
2022/07/26 00:54:36;;;;;;;;;;;;;;;;;;5052801;28;19938;-60
2022/07/26 00:57:02;;;;;;;;;;;;;;;;;;5047350;28;20390;-60
2022/07/26 00:59:28;;;;;;;;;;;;;;;;;;5046205;28;19962;-60
2022/07/26 01:01:53;;;;;;;;;;;;;;;;;;5049274;28;19943;-60
2022/07/26 01:04:19;;;;;;;;;;;;;;;;;;5050285;28;20263;-60
2022/07/26 01:06:45;;;;;;;;;;;;;;;;;;5046546;28;19927;-60
2022/07/26 01:09:11;;;;;;;;;;;;;;;;;;5050500;28;21061;-60
2022/07/26 01:11:37;;;;;;;;;;;;;;;;;;5048609;28;19921;-60
2022/07/26 01:14:03;;;;;;;;;;;;;;;;;;5046503;28;20057;-61
2022/07/26 01:16:29;;;;;;;;;;;;;;;;;;5047623;28;20013;-60
2022/07/26 01:18:55;;;;;;;;;;;;;;;;;;5047829;28;20046;-60
2022/07/26 01:21:21;;;;;;;;;;;;;;;;;;5050284;28;20769;-60
2022/07/26 01:23:46;;;;;;;;;;;;;;;;;;5056773;28;19921;-60
2022/07/26 01:26:12;;;;;;;;;;;;;;;;;;5056813;28;19920;-60
2022/07/26 01:28:38;;;;;;;;;;;;;;;;;;5054989;28;19916;-61
2022/07/26 01:31:04;;;;;;;;;;;;;;;;;;5054029;28;20385;-60
2022/07/26 01:33:30;;;;;;;;;;;;;;;;;;5052876;28;19982;-60
2022/07/26 01:35:56;;;;;;;;;;;;;;;;;;5059199;28;19917;-60
2022/07/26 01:38:22;;;;;;;;;;;;;;;;;;5050212;28;19920;-60
2022/07/26 01:40:48;;;;;;;;;;;;;;;;;;5056796;28;20354;-60
2022/07/26 01:43:13;;;;;;;;;;;;;;;;;;5053495;28;19920;-60
2022/07/26 01:45:39;;;;;;;;;;;;;;;;;;5057854;28;19939;-60
2022/07/26 01:48:05;;;;;;;;;;;;;;;;;;5056688;28;19917;-60
2022/07/26 01:50:31;;;;;;;;;;;;;;;;;;5054823;28;19925;-60
2022/07/26 01:52:57;;;;;;;;;;;;;;;;;;5056215;28;19959;-60
2022/07/26 01:55:23;;;;;;;;;;;;;;;;;;5056650;28;19921;-60
2022/07/26 01:57:49;;;;;;;;;;;;;;;;;;5055428;28;19924;-60
2022/07/26 02:00:15;;;;;;;;;;;;;;;;;;5052655;28;19913;-61
2022/07/26 02:02:40;;;;;;;;;;;;;;;;;;5052914;28;19916;-61
2022/07/26 02:05:06;;;;;;;;;;;;;;;;;;5056314;28;19924;-60
2022/07/26 02:07:32;;;;;;;;;;;;;;;;;;5056252;28;20281;-60
2022/07/26 02:09:58;;;;;;;;;;;;;;;;;;5056246;28;19921;-60
2022/07/26 02:12:24;;;;;;;;;;;;;;;;;;5055322;28;19921;-60
2022/07/26 02:14:50;;;;;;;;;;;;;;;;;;5056491;28;20028;-60
2022/07/26 02:17:16;;;;;;;;;;;;;;;;;;5053803;28;20060;-60
2022/07/26 02:19:42;;;;;;;;;;;;;;;;;;5054121;28;19929;-60
2022/07/26 02:22:07;;;;;;;;;;;;;;;;;;5055268;28;20811;-60
2022/07/26 02:24:33;;;;;;;;;;;;;;;;;;5058002;28;19943;-60
2022/07/26 02:26:59;;;;;;;;;;;;;;;;;;5054434;28;19916;-60
2022/07/26 02:29:25;;;;;;;;;;;;;;;;;;5051543;28;19920;-60
2022/07/26 02:31:51;;;;;;;;;;;;;;;;;;5054904;28;20916;-60
2022/07/26 02:34:17;;;;;;;;;;;;;;;;;;5047984;28;19967;-60
2022/07/26 02:36:43;;;;;;;;;;;;;;;;;;5050915;28;19924;-60
2022/07/26 02:39:09;;;;;;;;;;;;;;;;;;5050664;28;19916;-60
2022/07/26 02:41:34;;;;;;;;;;;;;;;;;;5050659;28;20290;-60
2022/07/26 02:44:00;;;;;;;;;;;;;;;;;;5053377;28;19920;-59
2022/07/26 02:46:26;;;;;;;;;;;;;;;;;;5050135;28;19920;-60
2022/07/26 02:48:52;;;;;;;;;;;;;;;;;;5049676;28;19920;-60
2022/07/26 02:51:18;;;;;;;;;;;;;;;;;;5051097;28;19927;-60
2022/07/26 02:53:44;;;;;;;;;;;;;;;;;;5048262;28;19920;-61
2022/07/26 02:56:10;;;;;;;;;;;;;;;;;;5054219;28;19922;-60
2022/07/26 02:58:35;;;;;;;;;;;;;;;;;;5049813;28;19920;-60
2022/07/26 03:01:01;;;;;;;;;;;;;;;;;;5050862;28;20503;-61
2022/07/26 03:03:27;;;;;;;;;;;;;;;;;;5062846;28;19983;-61
2022/07/26 03:05:53;;;;;;;;;;;;;;;;;;5078198;28;19923;-60
2022/07/26 03:08:19;;;;;;;;;;;;;;;;;;5052335;28;19928;-60
2022/07/26 03:10:45;;;;;;;;;;;;;;;;;;5053448;28;20351;-60
2022/07/26 03:13:11;;;;;;;;;;;;;;;;;;5050174;28;19920;-60
2022/07/26 03:15:37;;;;;;;;;;;;;;;;;;5053529;28;19931;-60
2022/07/26 03:18:03;;;;;;;;;;;;;;;;;;5051619;28;19920;-60
2022/07/26 03:20:28;;;;;;;;;;;;;;;;;;5050701;28;20352;-61
2022/07/26 03:22:54;;;;;;;;;;;;;;;;;;5052288;28;19916;-61
2022/07/26 03:25:20;;;;;;;;;;;;;;;;;;5053082;28;19966;-60
2022/07/26 03:27:46;;;;;;;;;;;;;;;;;;5052543;28;20385;-61
2022/07/26 03:30:12;;;;;;;;;;;;;;;;;;5050312;28;19924;-60
2022/07/26 03:32:38;;;;;;;;;;;;;;;;;;5053307;28;19916;-60
2022/07/26 03:35:04;;;;;;;;;;;;;;;;;;5053131;28;19920;-61
2022/07/26 03:37:30;;;;;;;;;;;;;;;;;;5053093;28;20321;-60
2022/07/26 03:39:55;;;;;;;;;;;;;;;;;;5045624;28;19916;-60
2022/07/26 03:42:21;;;;;;;;;;;;;;;;;;5050262;28;19916;-61
2022/07/26 03:44:47;;;;;;;;;;;;;;;;;;5050571;28;19921;-61
2022/07/26 03:47:13;;;;;;;;;;;;;;;;;;5053555;28;20377;-60
2022/07/26 03:49:39;;;;;;;;;;;;;;;;;;5047930;28;19912;-60
2022/07/26 03:52:05;;;;;;;;;;;;;;;;;;5050598;28;19920;-60
2022/07/26 03:54:31;;;;;;;;;;;;;;;;;;5049864;28;20365;-60
2022/07/26 03:56:56;;;;;;;;;;;;;;;;;;5051002;28;19920;-60
2022/07/26 03:59:24;;;;;;;;;;;;;;;;;;5050291;28;20061;-60
2022/07/26 04:01:50;;;;;;;;;;;;;;;;;;5050682;28;19959;-60
2022/07/26 04:04:16;;;;;;;;;;;;;;;;;;5052204;28;20388;-60
2022/07/26 04:06:42;;;;;;;;;;;;;;;;;;5050458;28;20295;-60
2022/07/26 04:09:08;;;;;;;;;;;;;;;;;;5047623;28;19920;-61
2022/07/26 04:11:34;;;;;;;;;;;;;;;;;;5052243;28;19965;-60
2022/07/26 04:14:00;;;;;;;;;;;;;;;;;;5048480;28;19916;-61
2022/07/26 04:16:26;;;;;;;;;;;;;;;;;;5049513;28;20000;-61
2022/07/26 04:18:52;;;;;;;;;;;;;;;;;;5050091;28;20377;-60
2022/07/26 04:21:18;;;;;;;;;;;;;;;;;;5050400;28;19948;-60
2022/07/26 04:23:43;;;;;;;;;;;;;;;;;;5046640;28;19921;-61
2022/07/26 04:26:12;;;;;;;;;;;;;;;;;;5046305;28;20310;-60
2022/07/26 04:28:37;;;;;;;;;;;;;;;;;;5047093;28;20293;-60
2022/07/26 04:31:03;;;;;;;;;;;;;;;;;;5043922;28;19925;-60
2022/07/26 04:33:29;;;;;;;;;;;;;;;;;;5052402;28;20387;-60
2022/07/26 04:35:55;;;;;;;;;;;;;;;;;;5046413;28;19916;-60
2022/07/26 04:38:21;;;;;;;;;;;;;;;;;;5047387;28;19944;-60
2022/07/26 04:40:47;;;;;;;;;;;;;;;;;;5043898;28;19927;-60
2022/07/26 04:43:13;;;;;;;;;;;;;;;;;;5052223;28;19920;-60
2022/07/26 04:45:39;;;;;;;;;;;;;;;;;;5052459;28;19919;-60
2022/07/26 04:48:05;;;;;;;;;;;;;;;;;;5053972;28;19916;-60
2022/07/26 04:50:31;;;;;;;;;;;;;;;;;;5046562;28;19931;-60
2022/07/26 04:52:57;;;;;;;;;;;;;;;;;;5052649;28;19920;-60
2022/07/26 04:55:22;;;;;;;;;;;;;;;;;;5050093;28;19922;-60
2022/07/26 04:57:48;;;;;;;;;;;;;;;;;;5052810;28;20552;-60
2022/07/26 05:00:14;;;;;;;;;;;;;;;;;;5050418;28;19938;-60
2022/07/26 05:02:40;;;;;;;;;;;;;;;;;;5047857;28;20357;-60
2022/07/26 05:05:06;;;;;;;;;;;;;;;;;;5047603;28;19916;-60
2022/07/26 05:07:32;;;;;;;;;;;;;;;;;;5049654;28;19970;-60
2022/07/26 05:09:58;;;;;;;;;;;;;;;;;;5042302;28;19927;-60
2022/07/26 05:12:24;;;;;;;;;;;;;;;;;;5050995;28;19912;-60
2022/07/26 05:14:49;;;;;;;;;;;;;;;;;;5046173;28;20444;-60
2022/07/26 05:17:15;;;;;;;;;;;;;;;;;;5050739;28;19912;-60
2022/07/26 05:19:41;;;;;;;;;;;;;;;;;;5051027;28;19923;-60
2022/07/26 05:22:07;;;;;;;;;;;;;;;;;;5048325;28;20641;-61
2022/07/26 05:24:33;;;;;;;;;;;;;;;;;;5048629;28;19916;-60
2022/07/26 05:26:59;;;;;;;;;;;;;;;;;;5052264;28;19929;-60
2022/07/26 05:29:25;;;;;;;;;;;;;;;;;;5048763;28;19966;-60
2022/07/26 05:31:51;;;;;;;;;;;;;;;;;;5048453;28;19924;-60
2022/07/26 05:34:17;;;;;;;;;;;;;;;;;;5045649;28;20984;-60
2022/07/26 05:36:43;;;;;;;;;;;;;;;;;;5049076;28;19912;-59
2022/07/26 05:39:09;;;;;;;;;;;;;;;;;;5049460;28;19921;-60
2022/07/26 05:41:35;;;;;;;;;;;;;;;;;;5047061;28;20003;-60
2022/07/26 05:44:02;;;;;;;;;;;;;;;;;;5047887;28;19951;-60
2022/07/26 05:46:28;;;;;;;;;;;;;;;;;;5049539;28;19968;-60
2022/07/26 05:48:53;;;;;;;;;;;;;;;;;;5050590;28;19918;-61
2022/07/26 05:51:19;;;;;;;;;;;;;;;;;;5050495;28;19917;-60
2022/07/26 05:53:45;;;;;;;;;;;;;;;;;;5046734;28;19921;-60
2022/07/26 05:56:11;;;;;;;;;;;;;;;;;;5043598;28;19916;-60
2022/07/26 05:58:37;;;;;;;;;;;;;;;;;;5050514;28;19974;-61
2022/07/26 06:01:03;;;;;;;;;;;;;;;;;;5045360;28;19975;-60
2022/07/26 06:03:30;;;;;;;;;;;;;;;;;;5047341;28;19916;-60
2022/07/26 06:05:56;;;;;;;;;;;;;;;;;;5051504;28;19978;-60
2022/07/26 06:08:22;;;;;;;;;;;;;;;;;;5048977;28;19958;-60
2022/07/26 06:10:48;;;;;;;;;;;;;;;;;;5048603;28;19916;-60
2022/07/26 06:13:14;;;;;;;;;;;;;;;;;;5051328;28;19916;-60
2022/07/26 06:15:41;;;;;;;;;;;;;;;;;;5052398;28;19920;-60
2022/07/26 06:18:07;;;;;;;;;;;;;;;;;;5044368;28;19948;-60
2022/07/26 06:20:32;;;;;;;;;;;;;;;;;;5053932;28;20278;-60
2022/07/26 06:22:58;;;;;;;;;;;;;;;;;;5056555;28;19920;-60
2022/07/26 06:25:24;;;;;;;;;;;;;;;;;;5046426;28;19921;-60
2022/07/26 06:27:50;;;;;;;;;;;;;;;;;;5051522;28;19928;-60
2022/07/26 06:30:16;;;;;;;;;;;;;;;;;;5050342;28;19950;-61
2022/07/26 06:32:45;;;;;;;;;;;;;;;;;;5052757;28;19916;-60
2022/07/26 06:35:11;;;;;;;;;;;;;;;;;;5050668;28;19916;-61
2022/07/26 06:37:37;;;;;;;;;;;;;;;;;;5052329;28;19923;-61
2022/07/26 06:40:02;;;;;;;;;;;;;;;;;;5049558;28;19920;-61
2022/07/26 06:42:28;;;;;;;;;;;;;;;;;;5049334;28;19916;-60
2022/07/26 06:44:54;;;;;;;;;;;;;;;;;;5046250;28;19928;-60
2022/07/26 06:47:20;;;;;;;;;;;;;;;;;;5050890;28;19962;-60
2022/07/26 06:49:46;;;;;;;;;;;;;;;;;;5050230;28;19931;-60
2022/07/26 06:52:12;;;;;;;;;;;;;;;;;;5053736;28;19921;-60
2022/07/26 06:54:38;;;;;;;;;;;;;;;;;;5051300;28;20453;-60
2022/07/26 06:57:03;;;;;;;;;;;;;;;;;;5050226;28;19967;-60
2022/07/26 06:59:29;;;;;;;;;;;;;;;;;;5040945;28;19917;-61
2022/07/26 07:01:55;;;;;;;;;;;;;;;;;;5050402;28;19920;-61
2022/07/26 07:04:21;;;;;;;;;;;;;;;;;;5047723;28;21000;-60
2022/07/26 07:06:47;;;;;;;;;;;;;;;;;;5046252;28;19927;-60
2022/07/26 07:09:13;;;;;;;;;;;;;;;;;;5052202;28;19921;-61
2022/07/26 07:11:39;;;;;;;;;;;;;;;;;;5049692;28;20263;-60
2022/07/26 07:14:05;;;;;;;;;;;;;;;;;;5053469;28;19952;-61
2022/07/26 07:16:31;;;;;;;;;;;;;;;;;;5046649;28;20011;-60
2022/07/26 07:18:56;;;;;;;;;;;;;;;;;;5050186;28;20300;-61
2022/07/26 07:21:22;;;;;;;;;;;;;;;;;;5054469;28;19924;-61
2022/07/26 07:23:48;;;;;;;;;;;;;;;;;;5046607;28;19923;-61
2022/07/26 07:26:14;;;;;;;;;;;;;;;;;;5054661;28;20298;-60
2022/07/26 07:28:40;;;;;;;;;;;;;;;;;;5050152;28;19916;-60
2022/07/26 07:31:06;;;;;;;;;;;;;;;;;;5049633;28;20452;-60
2022/07/26 07:33:32;;;;;;;;;;;;;;;;;;5045254;28;19929;-60
2022/07/26 07:35:58;;;;;;;;;;;;;;;;;;5050199;28;19916;-61
2022/07/26 07:38:24;;;;;;;;;;;;;;;;;;5052101;28;19973;-60
2022/07/26 07:40:50;;;;;;;;;;;;;;;;;;5050963;28;20062;-60
2022/07/26 07:43:15;;;;;;;;;;;;;;;;;;5045049;28;20370;-60
2022/07/26 07:45:41;;;;;;;;;;;;;;;;;;5052308;28;19980;-60
2022/07/26 07:48:07;;;;;;;;;;;;;;;;;;5049975;28;19921;-60
2022/07/26 07:50:33;;;;;;;;;;;;;;;;;;5049172;28;20023;-61
2022/07/26 07:52:59;;;;;;;;;;;;;;;;;;5051526;28;20293;-60
2022/07/26 07:55:25;;;;;;;;;;;;;;;;;;5046979;28;20023;-61
2022/07/26 07:57:51;;;;;;;;;;;;;;;;;;5052280;28;19912;-60
2022/07/26 08:00:18;;;;;;;;;;;;;;;;;;5043712;28;20508;-60
2022/07/26 08:02:43;;;;;;;;;;;;;;;;;;5049652;28;19970;-60
2022/07/26 08:05:09;;;;;;;;;;;;;;;;;;5038924;28;20010;-61
2022/07/26 08:07:35;;;;;;;;;;;;;;;;;;5050023;28;19967;-61
2022/07/26 08:10:01;;;;;;;;;;;;;;;;;;5049301;28;19989;-60
2022/07/26 08:12:27;;;;;;;;;;;;;;;;;;5051164;28;20007;-61
2022/07/26 08:14:53;;;;;;;;;;;;;;;;;;5044518;28;20405;-60
2022/07/26 08:17:19;;;;;;;;;;;;;;;;;;5045931;28;19920;-61
2022/07/26 08:19:45;;;;;;;;;;;;;;;;;;5048906;28;19924;-60
2022/07/26 08:22:10;;;;;;;;;;;;;;;;;;5053196;28;19930;-60
2022/07/26 08:24:36;;;;;;;;;;;;;;;;;;5049854;28;19917;-60
2022/07/26 08:27:02;;;;;;;;;;;;;;;;;;5051651;28;19912;-61
2022/07/26 08:29:28;;;;;;;;;;;;;;;;;;5067924;28;19951;-60
2022/07/26 08:31:54;;;;;;;;;;;;;;;;;;5052470;28;20325;-60
2022/07/26 08:34:20;;;;;;;;;;;;;;;;;;5046321;28;20305;-60
2022/07/26 08:36:46;;;;;;;;;;;;;;;;;;5051135;28;19966;-60
2022/07/26 08:39:12;;;;;;;;;;;;;;;;;;5048617;28;20351;-60
2022/07/26 08:41:39;;;;;;;;;;;;;;;;;;5048458;28;19975;-60
2022/07/26 08:44:05;;;;;;;;;;;;;;;;;;5049528;28;20459;-60
2022/07/26 08:46:31;;;;;;;;;;;;;;;;;;5047740;28;20409;-60
2022/07/26 08:48:56;;;;;;;;;;;;;;;;;;5049762;28;20211;-60
2022/07/26 08:51:22;;;;;;;;;;;;;;;;;;5048791;28;20396;-60
2022/07/26 08:53:48;;;;;;;;;;;;;;;;;;5051808;28;19920;-60
2022/07/26 08:56:14;;;;;;;;;;;;;;;;;;5044130;28;19912;-61
2022/07/26 08:58:42;;;;;;;;;;;;;;;;;;5049081;28;20033;-61
2022/07/26 09:01:08;;;;;;;;;;;;;;;;;;5050182;28;19928;-61
2022/07/26 09:03:36;;;;;;;;;;;;;;;;;;5047327;28;20412;-61
2022/07/26 09:06:02;;;;;;;;;;;;;;;;;;5048039;28;20015;-59
2022/07/26 09:08:28;;;;;;;;;;;;;;;;;;5050174;28;19950;-61
2022/07/26 09:10:54;;;;;;;;;;;;;;;;;;5044581;28;20575;-61
2022/07/26 09:13:22;;;;;;;;;;;;;;;;;;5043800;28;20021;-60
2022/07/26 09:15:47;;;;;;;;;;;;;;;;;;5044452;28;19920;-60
2022/07/26 09:18:13;;;;;;;;;;;;;;;;;;5048013;28;19927;-61
2022/07/26 09:20:39;;;;;;;;;;;;;;;;;;5046807;28;19951;-60
2022/07/26 09:23:05;;;;;;;;;;;;;;;;;;5048266;28;20404;-61
2022/07/26 09:25:31;;;;;;;;;;;;;;;;;;5041361;28;19920;-61
2022/07/26 09:27:58;;;;;;;;;;;;;;;;;;5046092;28;20016;-61
2022/07/26 09:30:24;;;;;;;;;;;;;;;;;;5040733;28;19924;-60
2022/07/26 09:32:50;;;;;;;;;;;;;;;;;;5049204;28;19912;-61
2022/07/26 09:35:16;;;;;;;;;;;;;;;;;;5047893;28;20007;-61
2022/07/26 09:37:42;;;;;;;;;;;;;;;;;;5049790;28;20389;-61
2022/07/26 09:40:08;;;;;;;;;;;;;;;;;;5050310;28;20420;-61
2022/07/26 09:42:34;;;;;;;;;;;;;;;;;;5045189;28;19969;-61
2022/07/26 09:45:00;;;;;;;;;;;;;;;;;;5053479;28;20389;-61
2022/07/26 09:47:26;;;;;;;;;;;;;;;;;;5052016;28;19999;-61
2022/07/26 09:49:51;;;;;;;;;;;;;;;;;;5055766;28;19912;-61
2022/07/26 09:52:17;;;;;;;;;;;;;;;;;;5052210;28;20435;-61
2022/07/26 09:54:48;;;;;;;;;;;;;;;;;;5054315;28;19920;-61
2022/07/26 09:57:13;;;;;;;;;;;;;;;;;;5056010;28;20002;-61
2022/07/26 09:59:39;;;;;;;;;;;;;;;;;;5053815;28;19913;-61
2022/07/26 10:02:06;;;;;;;;;;;;;;;;;;5053841;28;20039;-62
2022/07/26 10:04:32;;;;;;;;;;;;;;;;;;5051768;28;20021;-61
2022/07/26 10:06:58;;;;;;;;;;;;;;;;;;5045668;28;20366;-61
2022/07/26 10:09:24;;;;;;;;;;;;;;;;;;5050391;28;19970;-61
2022/07/26 10:11:50;;;;;;;;;;;;;;;;;;5051929;28;19927;-61
2022/07/26 10:14:16;;;;;;;;;;;;;;;;;;5052835;28;19920;-61
2022/07/26 10:16:41;;;;;;;;;;;;;;;;;;5049780;28;19953;-61
2022/07/26 10:19:07;;;;;;;;;;;;;;;;;;5050608;28;21233;-61
2022/07/26 10:21:34;;;;;;;;;;;;;;;;;;5048885;28;20009;-60
2022/07/26 10:24:00;;;;;;;;;;;;;;;;;;5052781;28;20133;-60
2022/07/26 10:26:26;;;;;;;;;;;;;;;;;;5035523;28;20002;-60
2022/07/26 10:28:51;;;;;;;;;;;;;;;;;;5029738;28;19963;-61
2022/07/26 10:31:17;;;;;;;;;;;;;;;;;;5023573;28;19928;-61
2022/07/26 10:33:43;;;;;;;;;;;;;;;;;;5028175;28;20007;-61
2022/07/26 10:36:09;;;;;;;;;;;;;;;;;;5025852;28;19967;-61
2022/07/26 10:38:35;;;;;;;;;;;;;;;;;;5045122;28;20010;-62
2022/07/26 10:41:01;;;;;;;;;;;;;;;;;;5050490;28;19931;-61
2022/07/26 10:43:27;;;;;;;;;;;;;;;;;;5045919;28;20418;-61
2022/07/26 10:45:53;;;;;;;;;;;;;;;;;;5031125;28;19994;-61
2022/07/26 10:48:19;;;;;;;;;;;;;;;;;;5029978;28;19995;-60
2022/07/26 10:50:45;;;;;;;;;;;;;;;;;;5026719;28;19995;-61
2022/07/26 10:53:10;;;;;;;;;;;;;;;;;;5029802;28;19920;-61
2022/07/26 10:55:36;;;;;;;;;;;;;;;;;;5029107;28;19923;-61
2022/07/26 10:58:02;;;;;;;;;;;;;;;;;;5028345;28;20744;-60
2022/07/26 11:00:28;;;;;;;;;;;;;;;;;;5031176;28;20011;-61
2022/07/26 11:02:54;;;;;;;;;;;;;;;;;;5027245;28;19917;-60
2022/07/26 11:05:21;;;;;;;;;;;;;;;;;;5027417;28;19921;-61
2022/07/26 11:07:47;;;;;;;;;;;;;;;;;;5020501;28;19967;-61
2022/07/26 11:10:12;;;;;;;;;;;;;;;;;;5030231;28;19929;-61
2022/07/26 11:12:38;;;;;;;;;;;;;;;;;;5026260;28;19927;-61
2022/07/26 11:15:04;;;;;;;;;;;;;;;;;;5032700;28;19921;-61
2022/07/26 11:17:30;;;;;;;;;;;;;;;;;;5024398;28;19927;-61
2022/07/26 11:19:56;;;;;;;;;;;;;;;;;;5027990;28;19971;-60
2022/07/26 11:22:22;;;;;;;;;;;;;;;;;;5030772;28;19917;-61
2022/07/26 11:24:48;;;;;;;;;;;;;;;;;;5028138;28;20020;-61
2022/07/26 11:27:14;;;;;;;;;;;;;;;;;;5030607;28;20483;-61
2022/07/26 11:29:40;;;;;;;;;;;;;;;;;;5031509;28;19968;-61
2022/07/26 11:32:05;;;;;;;;;;;;;;;;;;5024842;28;20493;-61
2022/07/26 11:34:32;;;;;;;;;;;;;;;;;;5029012;28;19917;-60
2022/07/26 11:36:57;;;;;;;;;;;;;;;;;;5026249;28;20449;-60
2022/07/26 11:39:23;;;;;;;;;;;;;;;;;;5031751;28;19916;-61
2022/07/26 11:41:51;;;;;;;;;;;;;;;;;;5031130;28;19920;-61
2022/07/26 11:44:16;;;;;;;;;;;;;;;;;;5032757;28;19979;-61
2022/07/26 11:46:48;;;;;;;;;;;;;;;;;;5031978;28;19952;-63
2022/07/26 11:49:14;;;;;;;;;;;;;;;;;;5026320;28;19921;-60
2022/07/26 11:51:40;;;;;;;;;;;;;;;;;;5027207;28;20417;-61
2022/07/26 11:54:06;;;;;;;;;;;;;;;;;;5023868;28;19921;-60
2022/07/26 11:56:32;;;;;;;;;;;;;;;;;;5046977;28;20035;-61
2022/07/26 11:58:58;;;;;;;;;;;;;;;;;;5049970;28;19995;-61
2022/07/26 12:01:24;;;;;;;;;;;;;;;;;;5049291;28;19917;-61
2022/07/26 12:03:50;;;;;;;;;;;;;;;;;;5048620;28;19921;-61
2022/07/26 12:06:16;;;;;;;;;;;;;;;;;;5048337;28;20478;-61
2022/07/26 12:08:42;;;;;;;;;;;;;;;;;;5050190;28;19974;-62
2022/07/26 12:11:08;;;;;;;;;;;;;;;;;;5049905;28;19932;-61
2022/07/26 12:13:33;;;;;;;;;;;;;;;;;;5041762;28;19916;-61
2022/07/26 12:15:59;;;;;;;;;;;;;;;;;;5052851;28;19932;-61
2022/07/26 12:18:25;;;;;;;;;;;;;;;;;;5052250;28;20358;-61
2022/07/26 12:20:51;;;;;;;;;;;;;;;;;;5054588;28;19923;-61
2022/07/26 12:23:17;;;;;;;;;;;;;;;;;;5047883;28;19919;-61
2022/07/26 12:25:43;;;;;;;;;;;;;;;;;;5046353;28;19913;-62
2022/07/26 12:28:09;;;;;;;;;;;;;;;;;;5051137;28;20397;-61
2022/07/26 12:30:35;;;;;;;;;;;;;;;;;;5051750;28;19924;-61
2022/07/26 12:33:00;;;;;;;;;;;;;;;;;;5051659;28;19928;-61
2022/07/26 12:35:28;;;;;;;;;;;;;;;;;;5049527;28;20003;-61
2022/07/26 12:37:54;;;;;;;;;;;;;;;;;;5050116;28;19999;-61
2022/07/26 12:40:20;;;;;;;;;;;;;;;;;;5053135;28;19919;-61
2022/07/26 12:42:46;;;;;;;;;;;;;;;;;;5046439;28;19917;-60
2022/07/26 12:45:12;;;;;;;;;;;;;;;;;;5052030;28;20401;-61
2022/07/26 12:47:37;;;;;;;;;;;;;;;;;;5047769;28;19945;-61
2022/07/26 12:50:03;;;;;;;;;;;;;;;;;;5052870;28;19913;-60
2022/07/26 12:52:29;;;;;;;;;;;;;;;;;;5048266;28;19943;-60
2022/07/26 12:54:55;;;;;;;;;;;;;;;;;;5048492;28;20389;-60
2022/07/26 12:57:21;;;;;;;;;;;;;;;;;;5023222;28;19913;-60
2022/07/26 12:59:47;;;;;;;;;;;;;;;;;;5054101;28;20487;-60
2022/07/26 13:02:13;;;;;;;;;;;;;;;;;;5042508;28;19917;-60
2022/07/26 13:04:39;;;;;;;;;;;;;;;;;;5049862;28;19917;-60
2022/07/26 13:07:05;;;;;;;;;;;;;;;;;;5044105;28;20270;-60
2022/07/26 13:09:32;;;;;;;;;;;;;;;;;;5026127;28;19973;-60
2022/07/26 13:11:58;;;;;;;;;;;;;;;;;;5036511;28;20453;-60
2022/07/26 13:14:23;;;;;;;;;;;;;;;;;;5036919;28;19920;-61
2022/07/26 13:16:49;;;;;;;;;;;;;;;;;;5044653;28;19928;-59
2022/07/26 13:19:15;;;;;;;;;;;;;;;;;;5034560;28;19913;-59
2022/07/26 13:21:41;;;;;;;;;;;;;;;;;;5037061;28;19921;-60
2022/07/26 13:24:07;;;;;;;;;;;;;;;;;;5035339;28;19927;-59
2022/07/26 13:26:33;;;;;;;;;;;;;;;;;;5039414;28;19924;-60
2022/07/26 13:28:59;;;;;;;;;;;;;;;;;;5030090;28;20009;-59
2022/07/26 13:31:24;;;;;;;;;;;;;;;;;;5040560;28;20019;-60
2022/07/26 13:33:50;;;;;;;;;;;;;;;;;;5039927;28;19920;-60
2022/07/26 13:36:16;;;;;;;;;;;;;;;;;;5042341;28;19970;-60
2022/07/26 13:38:42;;;;;;;;;;;;;;;;;;5041880;28;19920;-59
2022/07/26 13:41:08;;;;;;;;;;;;;;;;;;5046325;28;19951;-59
2022/07/26 13:43:34;;;;;;;;;;;;;;;;;;5042909;28;19983;-56
2022/07/26 13:46:00;;;;;;;;;;;;;;;;;;5046511;28;20512;-57
2022/07/26 13:48:26;;;;;;;;;;;;;;;;;;5039281;28;19917;-56
2022/07/26 13:50:52;;;;;;;;;;;;;;;;;;5049171;28;19924;-56
2022/07/26 13:53:17;;;;;;;;;;;;;;;;;;5042959;28;19916;-56
2022/07/26 13:55:43;;;;;;;;;;;;;;;;;;5045321;28;19916;-56
2022/07/26 13:58:09;;;;;;;;;;;;;;;;;;5043726;28;20509;-56
2022/07/26 14:00:35;;;;;;;;;;;;;;;;;;5043097;28;19916;-56
2022/07/26 14:03:01;;;;;;;;;;;;;;;;;;5046445;28;20301;-56
2022/07/26 14:05:27;;;;;;;;;;;;;;;;;;5048500;28;19920;-56
2022/07/26 14:07:53;;;;;;;;;;;;;;;;;;5038675;28;19921;-58
2022/07/26 14:10:19;;;;;;;;;;;;;;;;;;5043759;28;20734;-59
2022/07/26 14:12:46;;;;;;;;;;;;;;;;;;5044079;28;19924;-58
2022/07/26 14:15:12;;;;;;;;;;;;;;;;;;5038635;28;19925;-58
2022/07/26 14:17:38;;;;;;;;;;;;;;;;;;5045139;28;20305;-60
2022/07/26 14:20:04;;;;;;;;;;;;;;;;;;5046522;28;19916;-60
2022/07/26 14:22:30;;;;;;;;;;;;;;;;;;5038262;28;20003;-60
2022/07/26 14:24:56;;;;;;;;;;;;;;;;;;5034032;28;20368;-60
2022/07/26 14:27:21;;;;;;;;;;;;;;;;;;5028178;28;19994;-60
2022/07/26 14:29:47;;;;;;;;;;;;;;;;;;5032025;28;19920;-60
2022/07/26 14:32:13;;;;;;;;;;;;;;;;;;5040726;28;19928;-61
2022/07/26 14:34:39;;;;;;;;;;;;;;;;;;5046414;28;19961;-61
2022/07/26 14:37:05;;;;;;;;;;;;;;;;;;5042403;28;19912;-61
2022/07/26 14:39:32;;;;;;;;;;;;;;;;;;5045920;28;19920;-61
2022/07/26 14:41:58;;;;;;;;;;;;;;;;;;5034173;28;20029;-60
2022/07/26 14:44:25;;;;;;;;;;;;;;;;;;5044202;28;19920;-60
2022/07/26 14:46:51;;;;;;;;;;;;;;;;;;5038228;28;20501;-60
2022/07/26 14:49:17;;;;;;;;;;;;;;;;;;5042358;28;19940;-60
2022/07/26 14:51:42;;;;;;;;;;;;;;;;;;5043421;28;20615;-60
2022/07/26 14:54:08;;;;;;;;;;;;;;;;;;5042364;28;19974;-60
2022/07/26 14:56:34;;;;;;;;;;;;;;;;;;5042371;28;22159;-61
2022/07/26 14:59:00;;;;;;;;;;;;;;;;;;5038661;28;20047;-60
2022/07/26 15:01:26;;;;;;;;;;;;;;;;;;5035023;28;20294;-60
2022/07/26 15:03:52;;;;;;;;;;;;;;;;;;5035289;28;19921;-61
2022/07/26 15:06:18;;;;;;;;;;;;;;;;;;5039594;28;19920;-59
2022/07/26 15:08:44;;;;;;;;;;;;;;;;;;5048089;28;20367;-58
2022/07/26 15:11:09;;;;;;;;;;;;;;;;;;5051980;28;19965;-58
2022/07/26 15:13:35;;;;;;;;;;;;;;;;;;5040582;28;20390;-59
2022/07/26 15:16:01;;;;;;;;;;;;;;;;;;5043690;28;19925;-58
2022/07/26 15:18:27;;;;;;;;;;;;;;;;;;5047616;28;19920;-58
2022/07/26 15:20:53;;;;;;;;;;;;;;;;;;5047454;28;19921;-58
2022/07/26 15:23:19;;;;;;;;;;;;;;;;;;5043865;28;20285;-59
2022/07/26 15:25:47;;;;;;;;;;;;;;;;;;5040589;28;19917;-59
2022/07/26 15:28:13;;;;;;;;;;;;;;;;;;5042745;28;19920;-59
2022/07/26 15:30:40;;;;;;;;;;;;;;;;;;5045886;28;20739;-58
2022/07/26 15:33:06;;;;;;;;;;;;;;;;;;5045534;28;19967;-58
2022/07/26 15:35:34;;;;;;;;;;;;;;;;;;5043498;28;21014;-59
2022/07/26 15:38:00;;;;;;;;;;;;;;;;;;5043351;28;19920;-59
2022/07/26 15:40:26;;;;;;;;;;;;;;;;;;5036624;28;20415;-59
2022/07/26 15:42:52;;;;;;;;;;;;;;;;;;5017572;28;19920;-59
2022/07/26 15:45:18;;;;;;;;;;;;;;;;;;5029817;28;20468;-59
2022/07/26 15:47:44;;;;;;;;;;;;;;;;;;5044314;28;19920;-60
2022/07/26 15:50:10;;;;;;;;;;;;;;;;;;5033324;28;19920;-60
2022/07/26 15:52:36;;;;;;;;;;;;;;;;;;5040943;28;20412;-60
2022/07/26 15:55:02;;;;;;;;;;;;;;;;;;5028097;28;19936;-60
2022/07/26 15:57:28;;;;;;;;;;;;;;;;;;5036743;28;19920;-60
2022/07/26 15:59:53;;;;;;;;;;;;;;;;;;5042454;28;19916;-60
2022/07/26 16:02:19;;;;;;;;;;;;;;;;;;5043387;28;19950;-61
2022/07/26 16:04:45;;;;;;;;;;;;;;;;;;5046261;28;20018;-60
2022/07/26 16:07:11;;;;;;;;;;;;;;;;;;5044746;28;19912;-60
2022/07/26 16:09:37;;;;;;;;;;;;;;;;;;5049288;28;19971;-61
2022/07/26 16:12:03;;;;;;;;;;;;;;;;;;5040012;28;19924;-60
2022/07/26 16:14:29;;;;;;;;;;;;;;;;;;5043506;28;20523;-60
2022/07/26 16:16:55;;;;;;;;;;;;;;;;;;5048578;28;19968;-60
2022/07/26 16:19:21;;;;;;;;;;;;;;;;;;5050073;28;19961;-59
2022/07/26 16:21:46;;;;;;;;;;;;;;;;;;5039509;28;20015;-60
2022/07/26 16:24:12;;;;;;;;;;;;;;;;;;5046804;28;20499;-60
2022/07/26 16:26:39;;;;;;;;;;;;;;;;;;5047373;28;19919;-61
2022/07/26 16:29:05;;;;;;;;;;;;;;;;;;5043664;28;19916;-60
2022/07/26 16:31:31;;;;;;;;;;;;;;;;;;5034608;28;19928;-61
2022/07/26 16:33:57;;;;;;;;;;;;;;;;;;5041387;28;19946;-60
2022/07/26 16:36:23;;;;;;;;;;;;;;;;;;5043386;28;19920;-60